Time;durP1;ratioP1;P1;durP2;ratioP2;P2;SDS_P1;SDS_P2;PMS_P1;PMS_P2;Temp;Humidity;BMP_temperature;BMP_pressure;BME280_temperature;BME280_humidity;BME280_pressure;Samples;Min_cycle;Max_cycle;Signal;HPM_P1;HPM_P2
2023/05/23 00:02:12;;;;;;;;;9.50;6.75;;;;;15.00;77.05;99875.97;5118287;28;8832;-60
2023/05/23 00:04:41;;;;;;;;;16.00;12.00;;;;;14.98;76.81;99871.75;5118570;28;8867;-59
2023/05/23 00:07:09;;;;;;;;;15.50;15.25;;;;;14.98;76.94;99875.28;5118401;28;8808;-60
2023/05/23 00:09:37;;;;;;;;;7.00;6.25;;;;;15.00;77.29;99873.28;5118769;28;8823;-59
2023/05/23 00:12:05;;;;;;;;;16.50;15.00;;;;;15.04;76.93;99863.97;5118396;28;8824;-57
2023/05/23 00:14:34;;;;;;;;;16.50;15.75;;;;;15.10;76.52;99870.53;5118258;28;8836;-58
2023/05/23 00:17:02;;;;;;;;;10.00;8.50;;;;;15.17;76.66;99868.94;5118598;28;8855;-59
2023/05/23 00:19:30;;;;;;;;;12.25;11.50;;;;;15.23;76.26;99871.84;5118490;28;8836;-57
2023/05/23 00:21:58;;;;;;;;;11.50;10.00;;;;;15.29;76.12;99876.59;5118533;28;8849;-60
2023/05/23 00:24:26;;;;;;;;;15.50;13.00;;;;;15.35;75.80;99861.75;5118206;28;8815;-60
2023/05/23 00:26:53;;;;;;;;;16.00;14.25;;;;;15.39;76.19;99866.66;5118529;28;8962;-58
2023/05/23 00:29:21;;;;;;;;;15.75;14.00;;;;;15.43;75.99;99864.50;5117995;28;9644;-57
2023/05/23 00:31:49;;;;;;;;;11.00;11.00;;;;;15.45;75.31;99862.50;5118042;28;8858;-59
2023/05/23 00:34:18;;;;;;;;;14.00;13.00;;;;;15.47;75.82;99858.66;5118492;28;8874;-58
2023/05/23 00:36:46;;;;;;;;;14.00;12.50;;;;;15.49;75.88;99863.91;5118139;28;9655;-58
2023/05/23 00:39:18;;;;;;;;;16.00;13.00;;;;;15.50;75.77;99870.94;5117905;28;8824;-58
2023/05/23 00:41:47;;;;;;;;;12.25;10.00;;;;;15.50;75.53;99881.69;5117896;28;8966;-59
2023/05/23 00:44:18;;;;;;;;;16.00;12.50;;;;;15.51;75.58;99878.00;5118079;28;8824;-58
2023/05/23 00:46:47;;;;;;;;;16.50;15.50;;;;;15.51;75.27;99872.63;5117715;28;8933;-59
2023/05/23 00:49:18;;;;;;;;;15.25;14.50;;;;;15.51;75.06;99880.69;5117992;28;8819;-60
2023/05/23 00:51:48;;;;;;;;;20.50;19.75;;;;;15.52;75.72;99887.72;5117913;28;8847;-58
2023/05/23 00:54:16;;;;;;;;;22.25;18.75;;;;;15.54;75.37;99885.75;5117745;28;9529;-60
2023/05/23 00:56:44;;;;;;;;;20.50;19.00;;;;;15.53;75.64;99881.34;5116710;28;8824;-58
2023/05/23 00:59:12;;;;;;;;;17.00;14.00;;;;;15.53;75.28;99892.94;5117753;28;8838;-58
2023/05/23 01:01:40;;;;;;;;;21.50;16.50;;;;;15.54;75.64;99900.00;5117691;28;8827;-58
2023/05/23 01:04:08;;;;;;;;;18.75;17.00;;;;;15.54;75.71;99896.50;5117388;28;8840;-59
2023/05/23 01:06:36;;;;;;;;;21.75;18.25;;;;;15.53;75.25;99902.84;5117678;28;8823;-60
2023/05/23 01:09:04;;;;;;;;;17.00;15.00;;;;;15.52;75.68;99896.63;5117578;28;8928;-58
2023/05/23 01:11:43;;;;;;;;;15.50;15.00;;;;;15.51;75.81;99894.09;5117694;28;8824;-59
2023/05/23 01:14:11;;;;;;;;;14.75;14.00;;;;;15.50;75.27;99898.66;5117316;28;8828;-60
2023/05/23 01:16:39;;;;;;;;;12.50;10.00;;;;;15.49;75.73;99901.47;5117488;28;8831;-59
2023/05/23 01:19:07;;;;;;;;;17.00;16.75;;;;;15.48;75.55;99899.78;5117134;28;8835;-60
2023/05/23 01:21:35;;;;;;;;;18.00;16.25;;;;;15.48;75.37;99894.41;5116835;28;8848;-58
2023/05/23 01:24:03;;;;;;;;;13.50;9.75;;;;;15.47;75.82;99893.56;5116974;28;8846;-58
2023/05/23 01:26:31;;;;;;;;;17.00;15.50;;;;;15.44;75.70;99901.06;5116855;28;8842;-60
2023/05/23 01:28:59;;;;;;;;;18.50;16.00;;;;;15.42;75.96;99893.19;5117248;28;8832;-58
2023/05/23 01:31:27;;;;;;;;;11.00;11.00;;;;;15.39;75.58;99906.09;5116904;28;8847;-57
2023/05/23 01:33:54;;;;;;;;;15.50;14.00;;;;;15.34;76.15;99894.97;5117017;28;8863;-58
2023/05/23 01:36:23;;;;;;;;;15.75;13.00;;;;;15.27;75.81;99899.22;5117173;28;8850;-58
2023/05/23 01:38:51;;;;;;;;;15.00;12.50;;;;;15.23;75.90;99905.88;5117401;28;8846;-59
2023/05/23 01:41:19;;;;;;;;;11.75;11.25;;;;;15.19;76.39;99904.50;5116932;28;8832;-59
2023/05/23 01:43:47;;;;;;;;;18.00;16.50;;;;;15.13;76.49;99910.47;5117185;28;8909;-58
2023/05/23 01:46:14;;;;;;;;;15.50;13.75;;;;;15.09;76.84;99909.91;5116937;28;8967;-58
2023/05/23 01:48:42;;;;;;;;;13.50;12.75;;;;;15.05;76.59;99918.44;5116973;28;8816;-58
2023/05/23 01:51:10;;;;;;;;;12.00;10.50;;;;;15.02;76.46;99921.41;5116903;28;8839;-59
2023/05/23 01:53:38;;;;;;;;;11.00;9.00;;;;;14.99;76.55;99917.19;5116753;28;8856;-58
2023/05/23 01:56:06;;;;;;;;;12.50;11.00;;;;;14.99;76.97;99916.34;5116632;28;8858;-59
2023/05/23 01:58:33;;;;;;;;;14.50;12.50;;;;;14.98;76.37;99917.34;5116800;28;8952;-58
2023/05/23 02:01:01;;;;;;;;;14.25;11.75;;;;;14.96;76.23;99922.00;5116544;28;8984;-59
2023/05/23 02:03:29;;;;;;;;;10.50;10.50;;;;;14.94;76.96;99924.84;5116820;28;8842;-59
2023/05/23 02:05:57;;;;;;;;;14.00;13.00;;;;;14.95;77.06;99931.06;5116437;28;8828;-59
2023/05/23 02:08:25;;;;;;;;;12.00;11.00;;;;;14.95;76.74;99931.88;5116186;28;9477;-58
2023/05/23 02:10:53;;;;;;;;;12.00;10.00;;;;;14.95;76.70;99931.06;5116720;28;8966;-58
2023/05/23 02:13:21;;;;;;;;;14.00;12.50;;;;;14.95;76.73;99934.56;5116754;28;9615;-59
2023/05/23 02:15:48;;;;;;;;;9.75;9.75;;;;;14.96;76.54;99932.75;5116507;28;8851;-59
2023/05/23 02:18:16;;;;;;;;;9.75;9.00;;;;;14.96;76.47;99928.19;5116504;28;8816;-58
2023/05/23 02:20:44;;;;;;;;;15.25;14.50;;;;;14.97;76.71;99931.75;5116165;28;8840;-58
2023/05/23 02:23:12;;;;;;;;;14.00;11.00;;;;;14.95;76.14;99931.88;5116141;28;8835;-58
2023/05/23 02:25:40;;;;;;;;;17.50;15.25;;;;;14.96;76.43;99940.78;5116385;28;8820;-58
2023/05/23 02:28:08;;;;;;;;;14.25;12.50;;;;;14.94;76.48;99937.41;5115987;28;8840;-59
2023/05/23 02:30:36;;;;;;;;;15.00;12.75;;;;;14.92;76.15;99942.91;5116185;28;8977;-58
2023/05/23 02:33:03;;;;;;;;;12.25;11.50;;;;;14.92;76.65;99942.06;5116021;28;8839;-58
2023/05/23 02:35:31;;;;;;;;;15.00;14.50;;;;;14.91;76.70;99946.59;5115796;28;8948;-59
2023/05/23 02:37:59;;;;;;;;;10.00;10.00;;;;;14.91;76.57;99943.06;5116080;28;8946;-58
2023/05/23 02:40:27;;;;;;;;;16.50;15.00;;;;;14.88;76.75;99944.19;5115669;28;8823;-58
2023/05/23 02:42:56;;;;;;;;;10.00;8.50;;;;;14.87;76.17;99941.69;5116004;28;8854;-61
2023/05/23 02:45:25;;;;;;;;;13.75;12.50;;;;;14.87;76.66;99933.66;5116034;28;8812;-58
2023/05/23 02:47:52;;;;;;;;;12.25;10.50;;;;;14.88;76.19;99932.66;5116285;28;8852;-58
2023/05/23 02:50:21;;;;;;;;;14.00;13.00;;;;;14.87;76.67;99926.44;5116227;28;8828;-58
2023/05/23 02:52:48;;;;;;;;;14.25;12.50;;;;;14.88;76.72;99932.66;5115546;28;8849;-58
2023/05/23 02:55:16;;;;;;;;;11.50;10.00;;;;;14.88;76.40;99935.31;5116073;28;8862;-58
2023/05/23 02:57:44;;;;;;;;;12.00;10.50;;;;;14.88;76.28;99938.00;5116086;28;8828;-58
2023/05/23 03:00:12;;;;;;;;;15.00;14.00;;;;;14.87;76.05;99933.66;5115524;28;8842;-58
2023/05/23 03:02:40;;;;;;;;;10.75;10.00;;;;;14.87;76.57;99936.31;5116309;28;9517;-58
2023/05/23 03:05:08;;;;;;;;;13.00;11.00;;;;;14.88;76.32;99921.91;5115839;28;8840;-58
2023/05/23 03:07:35;;;;;;;;;10.00;9.75;;;;;14.88;76.11;99924.59;5115793;28;8820;-58
2023/05/23 03:10:03;;;;;;;;;10.00;9.00;;;;;14.88;75.99;99924.59;5115675;28;8870;-57
2023/05/23 03:12:31;;;;;;;;;13.50;12.00;;;;;14.89;76.39;99934.31;5115869;28;8844;-57
2023/05/23 03:14:59;;;;;;;;;12.75;12.00;;;;;14.91;76.56;99932.34;5115128;28;8832;-57
2023/05/23 03:17:26;;;;;;;;;12.00;10.00;;;;;14.91;76.04;99935.00;5115501;28;8840;-58
2023/05/23 03:19:54;;;;;;;;;18.00;15.50;;;;;14.91;76.28;99935.88;5116339;28;8867;-58
2023/05/23 03:22:22;;;;;;;;;12.25;10.50;;;;;14.91;76.42;99935.00;5119171;28;8900;-58
2023/05/23 03:24:49;;;;;;;;;13.50;12.75;;;;;14.89;75.97;99935.19;5119506;28;8931;-59
2023/05/23 03:27:17;;;;;;;;;10.25;9.50;;;;;14.89;76.36;99929.81;5119128;28;8828;-58
2023/05/23 03:29:46;;;;;;;;;11.00;9.75;;;;;14.91;76.47;99932.34;5118422;28;8846;-58
2023/05/23 03:32:14;;;;;;;;;10.50;9.75;;;;;14.91;76.24;99930.50;5119131;28;8843;-58
2023/05/23 03:34:42;;;;;;;;;12.25;9.75;;;;;14.93;76.62;99935.69;5118819;28;8852;-58
2023/05/23 03:37:10;;;;;;;;;18.00;13.00;;;;;14.93;75.77;99938.38;5119276;28;9636;-57
2023/05/23 03:39:37;;;;;;;;;18.50;15.50;;;;;14.93;75.95;99936.56;5119196;28;8854;-58
2023/05/23 03:42:06;;;;;;;;;21.50;19.00;;;;;14.94;75.95;99937.41;5119183;28;8849;-58
2023/05/23 03:44:34;;;;;;;;;19.00;18.00;;;;;14.94;76.16;99932.06;5119715;28;8854;-58
2023/05/23 03:47:01;;;;;;;;;15.00;13.75;;;;;14.95;76.05;99939.94;5119295;28;8966;-58
2023/05/23 03:49:29;;;;;;;;;15.25;12.75;;;;;14.96;75.63;99938.09;5118383;28;8824;-58
2023/05/23 03:51:57;;;;;;;;;10.75;7.00;;;;;14.96;76.10;99938.94;5118047;28;8849;-58
2023/05/23 03:54:25;;;;;;;;;17.75;17.75;;;;;14.98;76.33;99949.50;5118832;28;8854;-57
2023/05/23 03:56:52;;;;;;;;;19.00;18.00;;;;;14.99;76.29;99946.69;5118757;28;9595;-59
2023/05/23 03:59:20;;;;;;;;;15.00;13.00;;;;;15.01;75.96;99949.25;5118576;28;8820;-58
2023/05/23 04:01:48;;;;;;;;;13.75;12.75;;;;;15.02;76.11;99945.56;5118479;28;8970;-58
2023/05/23 04:04:17;;;;;;;;;16.50;16.00;;;;;15.03;76.30;99952.59;5118330;28;8856;-58
2023/05/23 04:06:44;;;;;;;;;23.00;18.50;;;;;15.01;75.47;99960.78;5118377;28;8866;-58
2023/05/23 04:09:12;;;;;;;;;19.75;18.00;;;;;14.99;76.02;99969.97;5117295;28;8850;-58
2023/05/23 04:11:41;;;;;;;;;21.00;19.00;;;;;14.99;76.38;99969.97;5116962;28;8950;-57
2023/05/23 04:14:09;;;;;;;;;19.75;17.75;;;;;14.97;76.17;99966.59;5116862;28;8847;-58
2023/05/23 04:16:40;;;;;;;;;15.50;14.50;;;;;14.96;76.45;99967.59;5116914;28;8846;-58
2023/05/23 04:19:08;;;;;;;;;17.00;16.00;;;;;14.95;76.25;99971.28;5117721;28;8843;-58
2023/05/23 04:21:36;;;;;;;;;17.75;15.50;;;;;14.94;76.27;99972.28;5117868;28;8823;-59
2023/05/23 04:24:03;;;;;;;;;18.50;15.75;;;;;14.93;76.12;99978.59;5117294;28;8832;-59
2023/05/23 04:26:31;;;;;;;;;14.50;14.00;;;;;14.90;76.25;99981.59;5117596;28;8951;-58
2023/05/23 04:29:00;;;;;;;;;14.75;13.50;;;;;14.88;76.29;99980.91;5117497;28;8847;-58
2023/05/23 04:31:28;;;;;;;;;14.00;10.50;;;;;14.86;76.80;99980.22;5117499;28;8946;-58
2023/05/23 04:33:56;;;;;;;;;18.50;16.00;;;;;14.87;76.01;99981.91;5117138;28;8836;-57
2023/05/23 04:36:24;;;;;;;;;15.50;13.75;;;;;14.88;76.24;99980.91;5116972;28;8985;-57
2023/05/23 04:38:52;;;;;;;;;16.00;13.00;;;;;14.89;76.72;99985.28;5116471;28;8835;-58
2023/05/23 04:41:22;;;;;;;;;18.75;16.25;;;;;14.88;76.75;99986.28;5115724;28;8961;-58
2023/05/23 04:43:53;;;;;;;;;16.25;15.25;;;;;14.89;76.65;99982.59;5116590;28;8839;-58
2023/05/23 04:46:25;;;;;;;;;14.50;14.50;;;;;14.90;76.56;99981.59;5116476;28;8832;-60
2023/05/23 04:48:53;;;;;;;;;15.50;14.00;;;;;14.91;76.14;99988.66;5116872;28;8843;-57
2023/05/23 04:51:21;;;;;;;;;20.00;18.00;;;;;14.91;76.70;99983.28;5117105;28;8836;-58
2023/05/23 04:53:49;;;;;;;;;17.75;17.25;;;;;14.90;76.28;99985.13;5117204;28;8836;-60
2023/05/23 04:56:19;;;;;;;;;18.00;16.50;;;;;14.92;76.32;99995.69;5115689;28;8847;-57
2023/05/23 04:58:48;;;;;;;;;15.25;13.00;;;;;14.93;76.36;99997.38;5116265;28;8827;-57
2023/05/23 05:01:16;;;;;;;;;17.00;15.50;;;;;14.94;76.21;99999.91;5115587;28;9850;-58
2023/05/23 05:03:44;;;;;;;;;12.50;12.00;;;;;14.95;76.58;100004.28;5115900;28;8868;-60
2023/05/23 05:06:12;;;;;;;;;11.00;10.00;;;;;14.96;76.33;100007.81;5116341;28;8831;-57
2023/05/23 05:08:40;;;;;;;;;15.25;12.75;;;;;14.92;76.19;100009.97;5116215;28;8970;-58
2023/05/23 05:11:08;;;;;;;;;15.25;12.50;;;;;14.92;76.39;100009.09;5116359;28;9005;-58
2023/05/23 05:13:36;;;;;;;;;15.75;15.00;;;;;14.92;76.37;100009.09;5115738;28;8832;-59
2023/05/23 05:16:04;;;;;;;;;15.50;14.50;;;;;14.91;76.66;100012.78;5116313;28;8987;-58
2023/05/23 05:18:32;;;;;;;;;13.50;12.00;;;;;14.88;76.57;100015.78;5115673;28;9596;-58
2023/05/23 05:21:00;;;;;;;;;10.50;10.00;;;;;14.88;76.28;100015.78;5115365;28;8855;-58
2023/05/23 05:23:29;;;;;;;;;18.50;11.75;;;;;14.88;76.86;100013.09;5115439;28;9509;-58
2023/05/23 05:25:56;;;;;;;;;13.00;12.50;;;;;14.89;76.15;100006.72;5115683;28;8846;-58
2023/05/23 05:28:24;;;;;;;;;16.25;13.00;;;;;14.90;76.74;100009.28;5115497;28;8853;-57
2023/05/23 05:30:53;;;;;;;;;16.50;15.50;;;;;14.93;76.69;100011.66;5115269;28;8840;-57
2023/05/23 05:33:22;;;;;;;;;13.50;13.00;;;;;14.94;76.67;100018.69;5115127;28;8858;-58
2023/05/23 05:35:51;;;;;;;;;15.00;13.00;;;;;14.96;76.23;100021.25;5115056;28;8891;-58
2023/05/23 05:38:18;;;;;;;;;18.00;16.50;;;;;14.98;76.19;100021.94;5115132;28;8838;-57
2023/05/23 05:40:47;;;;;;;;;14.50;13.00;;;;;14.96;76.03;100021.25;5113819;28;8846;-61
2023/05/23 05:43:15;;;;;;;;;15.25;13.50;;;;;14.98;76.67;100036.19;5114320;28;8832;-60
2023/05/23 05:45:42;;;;;;;;;16.50;14.50;;;;;14.99;76.62;100035.19;5114324;28;8958;-59
2023/05/23 05:48:10;;;;;;;;;16.75;15.75;;;;;15.02;76.00;100031.38;5114752;28;8824;-59
2023/05/23 05:50:38;;;;;;;;;13.50;12.00;;;;;15.02;76.14;100037.56;5114229;28;8978;-59
2023/05/23 05:53:07;;;;;;;;;15.75;14.50;;;;;15.04;75.85;100032.94;5114513;28;8820;-59
2023/05/23 05:55:35;;;;;;;;;22.25;19.00;;;;;15.08;76.04;100038.81;5114357;28;8978;-59
2023/05/23 05:58:02;;;;;;;;;15.25;13.00;;;;;15.09;76.27;100044.03;5113420;28;8857;-59
2023/05/23 06:00:30;;;;;;;;;23.00;21.25;;;;;15.10;75.90;100039.53;5113429;28;8831;-60
2023/05/23 06:02:58;;;;;;;;;20.00;18.50;;;;;15.08;76.04;100045.03;5113292;28;8954;-60
2023/05/23 06:05:26;;;;;;;;;15.00;13.00;;;;;15.08;76.67;100052.22;5113751;28;8965;-60
2023/05/23 06:07:54;;;;;;;;;21.75;19.50;;;;;15.09;76.18;100053.94;5113664;28;8854;-61
2023/05/23 06:10:23;;;;;;;;;18.25;18.00;;;;;15.08;76.26;100049.53;5113165;28;8831;-59
2023/05/23 06:12:51;;;;;;;;;21.00;20.50;;;;;15.07;76.39;100061.25;5113130;28;8839;-59
2023/05/23 06:15:19;;;;;;;;;25.25;24.00;;;;;15.05;75.94;100055.22;5112499;28;8840;-59
2023/05/23 06:17:47;;;;;;;;;21.50;17.50;;;;;15.04;76.29;100062.44;5112772;28;8974;-59
2023/05/23 06:20:15;;;;;;;;;24.00;21.50;;;;;15.04;76.66;100053.53;5112823;28;8848;-59
2023/05/23 06:22:43;;;;;;;;;20.25;16.50;;;;;15.02;76.59;100058.19;5112314;28;8839;-59
2023/05/23 06:25:10;;;;;;;;;17.00;14.25;;;;;14.99;76.76;100059.34;5112920;28;8840;-60
2023/05/23 06:27:38;;;;;;;;;18.75;17.25;;;;;14.97;76.41;100057.78;5113737;28;8836;-59
2023/05/23 06:30:06;;;;;;;;;26.00;23.00;;;;;14.97;76.67;100055.97;5113550;28;8867;-59
2023/05/23 06:32:34;;;;;;;;;19.00;16.00;;;;;14.98;76.41;100059.47;5114240;28;8820;-59
2023/05/23 06:35:02;;;;;;;;;28.00;22.50;;;;;14.95;77.08;100059.78;5114279;28;8844;-59
2023/05/23 06:37:30;;;;;;;;;25.00;20.00;;;;;14.94;76.38;100058.09;5114283;28;8844;-60
2023/05/23 06:39:58;;;;;;;;;24.50;20.00;;;;;14.94;76.53;100066.13;5114848;28;8828;-60
2023/05/23 06:42:26;;;;;;;;;21.50;20.00;;;;;14.92;76.47;100068.97;5114790;28;8824;-60
2023/05/23 06:44:54;;;;;;;;;24.75;19.50;;;;;14.91;76.56;100071.78;5114726;28;8854;-61
2023/05/23 06:47:22;;;;;;;;;19.00;18.00;;;;;14.90;76.70;100070.94;5113120;28;8955;-58
2023/05/23 06:49:49;;;;;;;;;15.00;13.00;;;;;14.91;76.70;100071.78;5112932;28;8835;-59
2023/05/23 06:52:17;;;;;;;;;10.75;8.50;;;;;14.90;77.05;100078.13;5112086;28;8863;-61
2023/05/23 06:54:45;;;;;;;;;10.25;9.25;;;;;14.89;76.91;100081.81;5114188;28;10030;-60
2023/05/23 06:57:13;;;;;;;;;9.50;9.50;;;;;14.86;76.63;100084.81;5116740;28;8936;-60
2023/05/23 06:59:40;;;;;;;;;14.75;13.00;;;;;14.85;77.22;100091.13;5117754;28;8831;-60
2023/05/23 07:02:08;;;;;;;;;14.50;12.00;;;;;14.85;76.73;100083.06;5117820;28;9627;-58
2023/05/23 07:04:36;;;;;;;;;12.00;9.75;;;;;14.85;76.68;100075.03;5118461;28;8970;-61
2023/05/23 07:07:04;;;;;;;;;8.50;8.50;;;;;14.84;76.88;100090.28;5118084;28;8896;-61
2023/05/23 07:09:31;;;;;;;;;10.00;9.00;;;;;14.85;76.69;100091.13;5118279;28;8859;-59
2023/05/23 07:11:59;;;;;;;;;12.25;9.25;;;;;14.86;76.93;100095.53;5118682;28;8832;-61
2023/05/23 07:14:27;;;;;;;;;15.75;13.50;;;;;14.85;76.77;100110.75;5118132;28;8950;-59
2023/05/23 07:16:55;;;;;;;;;12.25;12.00;;;;;14.80;77.36;100109.50;5118376;28;9556;-59
2023/05/23 07:19:23;;;;;;;;;7.00;6.25;;;;;14.77;77.12;100124.03;5118211;28;8921;-59
2023/05/23 07:21:51;;;;;;;;;9.25;9.00;;;;;14.75;77.44;100120.66;5117965;28;8827;-60
2023/05/23 07:24:18;;;;;;;;;9.00;7.25;;;;;14.72;77.79;100120.94;5117942;28;8937;-60
2023/05/23 07:26:46;;;;;;;;;8.00;7.00;;;;;14.68;77.82;100124.03;5117290;28;8969;-60
2023/05/23 07:29:14;;;;;;;;;10.50;9.50;;;;;14.67;77.88;100127.72;5117229;28;8832;-61
2023/05/23 07:31:42;;;;;;;;;9.25;7.00;;;;;14.62;78.63;100129.97;5118380;28;8828;-61
2023/05/23 07:34:10;;;;;;;;;11.25;9.50;;;;;14.57;78.19;100133.09;5118364;28;8836;-61
2023/05/23 07:36:39;;;;;;;;;9.00;8.00;;;;;14.54;78.66;100137.88;5117948;28;8874;-62
2023/05/23 07:39:07;;;;;;;;;9.25;8.00;;;;;14.48;78.95;100144.66;5118071;28;8873;-59
2023/05/23 07:41:35;;;;;;;;;6.00;5.50;;;;;14.43;78.56;100146.09;5118060;28;8922;-60
2023/05/23 07:44:03;;;;;;;;;13.00;11.50;;;;;14.39;78.63;100147.34;5117826;28;8853;-59
2023/05/23 07:46:31;;;;;;;;;8.00;7.00;;;;;14.37;79.20;100147.50;5118012;28;8823;-59
2023/05/23 07:48:59;;;;;;;;;6.00;6.00;;;;;14.35;78.68;100149.44;5117911;28;8836;-60
2023/05/23 07:51:29;;;;;;;;;11.50;9.75;;;;;14.34;79.28;100152.28;5117765;28;8936;-60
2023/05/23 07:53:57;;;;;;;;;11.00;8.00;;;;;14.37;78.78;100163.56;5117860;28;8839;-62
2023/05/23 07:56:25;;;;;;;;;11.50;11.50;;;;;14.38;79.16;100167.09;5117882;28;8913;-59
2023/05/23 07:58:53;;;;;;;;;10.50;9.25;;;;;14.37;79.14;100173.44;5117579;28;8840;-62
2023/05/23 08:01:21;;;;;;;;;9.50;9.00;;;;;14.37;79.18;100173.44;5117526;28;8847;-59
2023/05/23 08:03:49;;;;;;;;;9.00;8.00;;;;;14.34;79.08;100177.22;5117234;28;8839;-60
2023/05/23 08:06:17;;;;;;;;;11.25;10.00;;;;;14.35;79.30;100172.72;5116701;28;8835;-61
2023/05/23 08:08:45;;;;;;;;;10.50;9.50;;;;;14.37;79.42;100178.78;5117211;28;8864;-60
2023/05/23 08:11:13;;;;;;;;;9.50;8.50;;;;;14.41;79.26;100180.22;5117412;28;8832;-59
2023/05/23 08:13:41;;;;;;;;;9.50;9.25;;;;;14.46;79.32;100180.63;5117406;28;8832;-61
2023/05/23 08:16:09;;;;;;;;;12.25;10.50;;;;;14.46;78.73;100180.63;5116079;28;8848;-60
2023/05/23 08:18:38;;;;;;;;;8.75;8.75;;;;;14.47;79.10;100174.28;5115709;28;9888;-61
2023/05/23 08:21:06;;;;;;;;;9.50;9.50;;;;;14.47;78.93;100183.16;5115941;28;8870;-60
2023/05/23 08:23:34;;;;;;;;;10.00;9.00;;;;;14.52;78.70;100190.78;5116034;28;8843;-60
2023/05/23 08:26:02;;;;;;;;;9.50;9.25;;;;;14.52;78.57;100183.59;5115774;28;8832;-60
2023/05/23 08:28:30;;;;;;;;;11.50;9.25;;;;;14.54;78.87;100197.69;5115776;28;8843;-61
2023/05/23 08:30:59;;;;;;;;;9.00;6.00;;;;;14.57;78.60;100200.09;5115570;28;8835;-61
2023/05/23 08:33:27;;;;;;;;;9.75;9.75;;;;;14.57;78.72;100202.78;5115776;28;8824;-61
2023/05/23 08:35:55;;;;;;;;;12.25;9.50;;;;;14.57;79.10;100188.53;5116190;28;8936;-60
2023/05/23 08:38:23;;;;;;;;;9.00;9.00;;;;;14.55;79.15;100202.06;5116597;28;8828;-62
2023/05/23 08:40:51;;;;;;;;;7.50;6.50;;;;;14.53;79.46;100192.47;5116099;28;8862;-60
2023/05/23 08:43:19;;;;;;;;;9.50;9.25;;;;;14.57;78.74;100196.59;5116663;28;8828;-62
2023/05/23 08:45:47;;;;;;;;;9.50;9.25;;;;;14.61;79.31;100189.94;5117075;28;8831;-61
2023/05/23 08:48:15;;;;;;;;;12.75;11.25;;;;;14.67;79.40;100190.22;5116708;28;8852;-59
2023/05/23 08:50:43;;;;;;;;;10.75;9.50;;;;;14.75;78.84;100194.88;5116832;28;8848;-62
2023/05/23 08:53:18;;;;;;;;;9.00;6.25;;;;;14.83;78.84;100192.31;5116673;28;8832;-60
2023/05/23 08:55:46;;;;;;;;;7.00;7.00;;;;;14.87;78.86;100188.38;5116783;28;9483;-60
2023/05/23 08:58:15;;;;;;;;;9.50;9.50;;;;;14.88;78.34;100198.94;5116908;28;8886;-60
2023/05/23 09:00:42;;;;;;;;;9.50;9.00;;;;;14.88;78.55;100209.66;5116337;28;8820;-60
2023/05/23 09:03:11;;;;;;;;;10.00;9.00;;;;;14.86;78.31;100208.16;5116684;28;8836;-61
2023/05/23 09:05:39;;;;;;;;;10.50;10.00;;;;;14.81;78.85;100215.75;5116426;28;8929;-60
2023/05/23 09:08:07;;;;;;;;;5.00;5.00;;;;;14.82;78.57;100217.44;5115426;28;8800;-58
2023/05/23 09:10:35;;;;;;;;;7.50;6.75;;;;;14.86;78.92;100225.06;5116175;28;8843;-60
2023/05/23 09:13:03;;;;;;;;;6.50;6.50;;;;;14.90;79.00;100222.94;5116081;28;8828;-61
2023/05/23 09:15:31;;;;;;;;;8.00;7.00;;;;;14.93;79.09;100226.19;5116000;28;8831;-60
2023/05/23 09:17:59;;;;;;;;;9.00;7.00;;;;;14.98;78.64;100228.44;5115436;28;8874;-62
2023/05/23 09:20:27;;;;;;;;;9.50;6.75;;;;;15.03;78.21;100228.88;5115812;28;8856;-60
2023/05/23 09:22:55;;;;;;;;;9.75;9.75;;;;;15.06;78.44;100231.25;5116152;28;8823;-60
2023/05/23 09:25:23;;;;;;;;;9.25;8.50;;;;;15.06;78.61;100232.13;5115682;28;8819;-60
2023/05/23 09:27:51;;;;;;;;;14.00;11.50;;;;;15.06;78.48;100236.63;5115395;28;8828;-61
2023/05/23 09:30:19;;;;;;;;;12.75;12.00;;;;;15.03;78.67;100237.75;5114749;28;8856;-60
2023/05/23 09:32:47;;;;;;;;;11.75;10.00;;;;;14.99;78.12;100240.84;5115134;28;8828;-60
2023/05/23 09:35:15;;;;;;;;;8.75;7.50;;;;;14.92;78.81;100245.09;5115355;28;8850;-60
2023/05/23 09:37:44;;;;;;;;;10.25;10.00;;;;;14.86;78.87;100245.69;5114364;28;9765;-59
2023/05/23 09:40:12;;;;;;;;;10.00;10.00;;;;;14.83;78.82;100248.63;5113967;28;8836;-61
2023/05/23 09:42:41;;;;;;;;;7.00;6.25;;;;;14.83;78.81;100254.00;5115771;28;8831;-60
2023/05/23 09:45:09;;;;;;;;;4.00;4.00;;;;;14.81;79.10;100255.97;5115202;28;8904;-59
2023/05/23 09:47:37;;;;;;;;;6.50;5.75;;;;;14.74;79.06;100246.81;5115335;28;8823;-60
2023/05/23 09:50:07;;;;;;;;;8.00;6.50;;;;;14.68;78.87;100253.56;5115222;28;8869;-59
2023/05/23 09:52:35;;;;;;;;;10.00;10.00;;;;;14.59;79.19;100243.69;5115710;28;9489;-59
2023/05/23 09:55:03;;;;;;;;;10.00;10.00;;;;;14.57;79.82;100252.88;5115446;28;8897;-59
2023/05/23 09:57:30;;;;;;;;;7.00;7.00;;;;;14.53;79.90;100251.44;5114729;28;8843;-59
2023/05/23 09:59:59;;;;;;;;;10.00;9.00;;;;;14.53;79.24;100262.16;5115007;28;8978;-59
2023/05/23 10:02:27;;;;;;;;;9.75;9.00;;;;;14.53;79.64;100260.34;5115597;28;8832;-60
2023/05/23 10:04:55;;;;;;;;;12.50;10.00;;;;;14.51;79.11;100258.78;5114805;28;8848;-59
2023/05/23 10:07:23;;;;;;;;;14.50;12.75;;;;;14.48;79.67;100259.91;5114531;28;8851;-59
2023/05/23 10:09:51;;;;;;;;;11.00;10.50;;;;;14.44;79.16;100261.19;5115156;28;9494;-59
2023/05/23 10:12:19;;;;;;;;;10.50;9.25;;;;;14.40;79.46;100264.25;5114945;28;8831;-59
2023/05/23 10:14:47;;;;;;;;;10.00;9.50;;;;;14.35;79.99;100266.50;5113806;28;8815;-59
2023/05/23 10:17:15;;;;;;;;;11.00;9.75;;;;;14.32;79.58;100264.09;5113797;28;8831;-59
2023/05/23 10:19:43;;;;;;;;;12.33;11.67;;;;;14.30;79.87;100264.25;5114544;28;8854;-59
2023/05/23 10:22:11;;;;;;;;;7.50;6.25;;;;;14.29;79.94;100277.78;5114214;28;8962;-59
2023/05/23 10:24:40;;;;;;;;;10.50;9.75;;;;;14.27;80.02;100279.75;5112705;28;8863;-59
2023/05/23 10:27:08;;;;;;;;;12.50;11.00;;;;;14.25;79.79;100284.38;5111831;28;8925;-59
2023/05/23 10:29:36;;;;;;;;;11.50;10.00;;;;;14.25;80.48;100287.06;5114213;28;8874;-60
2023/05/23 10:32:04;;;;;;;;;11.00;9.25;;;;;14.20;80.05;100294.66;5117066;28;8839;-60
2023/05/23 10:34:32;;;;;;;;;12.75;10.00;;;;;14.14;79.72;100288.00;5117230;28;8941;-59
2023/05/23 10:37:00;;;;;;;;;12.00;11.50;;;;;14.13;79.99;100298.84;5117810;28;8849;-59
2023/05/23 10:39:28;;;;;;;;;14.00;10.00;;;;;14.19;79.55;100309.06;5117307;28;8948;-59
2023/05/23 10:41:56;;;;;;;;;10.50;9.75;;;;;14.22;79.07;100308.75;5117949;28;9815;-60
2023/05/23 10:44:25;;;;;;;;;12.00;10.25;;;;;14.20;79.90;100308.91;5117556;28;8863;-58
2023/05/23 10:46:53;;;;;;;;;9.00;8.50;;;;;14.20;79.36;100319.59;5116562;28;8903;-58
2023/05/23 10:49:21;;;;;;;;;12.25;11.00;;;;;14.14;79.40;100312.09;5116805;28;8827;-58
2023/05/23 10:51:50;;;;;;;;;11.50;11.00;;;;;14.09;80.09;100319.69;5115879;28;8846;-59
2023/05/23 10:54:18;;;;;;;;;14.75;14.25;;;;;14.03;79.36;100324.75;5114922;28;8831;-57
2023/05/23 10:56:46;;;;;;;;;14.50;14.00;;;;;13.97;80.09;100327.94;5113648;28;8958;-58
2023/05/23 10:59:14;;;;;;;;;6.50;6.00;;;;;13.93;80.18;100337.22;5115161;28;8839;-58
2023/05/23 11:01:42;;;;;;;;;15.00;12.75;;;;;13.90;80.36;100334.81;5116165;28;8828;-58
2023/05/23 11:04:10;;;;;;;;;9.00;9.00;;;;;13.88;79.86;100342.97;5116124;28;8864;-59
2023/05/23 11:06:39;;;;;;;;;10.00;10.00;;;;;13.89;79.71;100354.56;5116404;28;8840;-59
2023/05/23 11:09:08;;;;;;;;;3.50;3.00;;;;;13.92;80.19;100343.56;5116184;28;8827;-60
2023/05/23 11:11:36;;;;;;;;;9.75;9.75;;;;;13.95;79.63;100349.50;5117011;28;9023;-58
2023/05/23 11:14:04;;;;;;;;;9.00;7.50;;;;;14.06;79.24;100345.88;5116695;28;8824;-59
2023/05/23 11:16:32;;;;;;;;;6.25;5.50;;;;;14.18;78.88;100344.84;5117148;28;8846;-59
2023/05/23 11:19:01;;;;;;;;;7.50;7.50;;;;;14.28;78.86;100345.72;5116960;28;8936;-58
2023/05/23 11:21:28;;;;;;;;;9.00;7.00;;;;;14.47;78.67;100343.09;5116272;28;9741;-59
2023/05/23 11:23:56;;;;;;;;;10.75;8.00;;;;;14.80;77.74;100338.25;5117053;28;8832;-59
2023/05/23 11:26:24;;;;;;;;;9.00;7.00;;;;;15.22;76.70;100338.81;5117167;28;8828;-59
2023/05/23 11:28:52;;;;;;;;;8.00;6.75;;;;;15.75;75.34;100332.00;5117167;28;8835;-59